Time;durP1;ratioP1;P1;durP2;ratioP2;P2;SDS_P1;SDS_P2;PMS_P1;PMS_P2;Temp;Humidity;BMP_temperature;BMP_pressure;BME280_temperature;BME280_humidity;BME280_pressure;Samples;Min_cycle;Max_cycle;Signal;HPM_P1;HPM_P2
2023/05/19 00:00:27;;;;;;;;;;;;;;;20.92;44.06;102252.88;5007138;28;4234;-72
2023/05/19 00:02:54;;;;;;;;;;;;;;;20.93;43.93;102248.59;5004970;28;4082;-75
2023/05/19 00:05:21;;;;;;;;;;;;;;;20.90;43.84;102249.84;5006327;28;4094;-75
2023/05/19 00:07:48;;;;;;;;;;;;;;;20.91;43.85;102254.25;5002746;28;4481;-74
2023/05/19 00:10:15;;;;;;;;;;;;;;;20.92;43.97;102252.88;5005105;28;4171;-74
2023/05/19 00:12:41;;;;;;;;;;;;;;;20.92;43.91;102255.00;5004594;28;4150;-74
2023/05/19 00:15:09;;;;;;;;;;;;;;;20.90;43.83;102252.72;5008230;28;4068;-72
2023/05/19 00:17:37;;;;;;;;;;;;;;;20.91;43.98;102245.59;5008849;28;3946;-74
2023/05/19 00:20:06;;;;;;;;;;;;;;;20.90;43.94;102252.72;5010295;28;4051;-74
2023/05/19 00:22:32;;;;;;;;;;;;;;;20.90;43.91;102249.84;5009148;28;3919;-74
2023/05/19 00:24:59;;;;;;;;;;;;;;;20.89;43.84;102251.22;5007431;28;4180;-75
2023/05/19 00:27:25;;;;;;;;;;;;;;;20.89;43.80;102254.13;5011211;28;4120;-75
2023/05/19 00:29:52;;;;;;;;;;;;;;;20.88;43.90;102252.59;5007647;28;4061;-74
2023/05/19 00:32:18;;;;;;;;;;;;;;;20.88;43.88;102258.34;5017078;28;4142;-75
2023/05/19 00:34:46;;;;;;;;;;;;;;;20.88;43.94;102246.84;5011887;28;3982;-74
2023/05/19 00:37:13;;;;;;;;;;;;;;;20.86;44.08;102243.81;5012217;28;5187;-74
2023/05/19 00:39:39;;;;;;;;;;;;;;;20.88;43.90;102246.84;5007051;28;4505;-71
2023/05/19 00:42:05;;;;;;;;;;;;;;;20.87;43.77;102253.22;5008059;28;4246;-74
2023/05/19 00:44:32;;;;;;;;;;;;;;;20.85;43.95;102250.97;5016856;28;4135;-75
2023/05/19 00:46:58;;;;;;;;;;;;;;;20.86;43.89;102255.31;5010150;28;3887;-74
2023/05/19 00:49:25;;;;;;;;;;;;;;;20.85;43.90;102245.19;5011002;28;4102;-74
2023/05/19 00:51:51;;;;;;;;;;;;;;;20.83;44.13;102250.81;5007316;28;4164;-74
2023/05/19 00:54:18;;;;;;;;;;;;;;;20.84;43.96;102255.19;5014873;28;4375;-74
2023/05/19 00:56:44;;;;;;;;;;;;;;;20.84;44.21;102245.81;5041801;28;4187;-73
2023/05/19 00:59:11;;;;;;;;;;;;;;;20.82;44.13;102249.31;5014509;28;4199;-74
2023/05/19 01:01:37;;;;;;;;;;;;;;;20.81;44.00;102247.81;5012649;28;4114;-74
2023/05/19 01:04:04;;;;;;;;;;;;;;;20.81;44.12;102242.03;5009548;28;4121;-74
2023/05/19 01:06:30;;;;;;;;;;;;;;;20.81;44.14;102242.03;5012321;28;4292;-74
2023/05/19 01:08:57;;;;;;;;;;;;;;;20.79;44.16;102241.91;5010719;28;4083;-74
2023/05/19 01:11:24;;;;;;;;;;;;;;;20.80;44.26;102234.00;5010533;28;4334;-74
2023/05/19 01:13:50;;;;;;;;;;;;;;;20.79;44.13;102236.16;5007623;28;4180;-73
2023/05/19 01:16:35;;;;;;;;;;;;;;;20.78;44.11;102237.53;5008249;28;4114;-75
2023/05/19 01:19:04;;;;;;;;;;;;;;;20.76;44.18;102239.53;5011908;28;4188;-74
2023/05/19 01:21:49;;;;;;;;;;;;;;;20.76;44.01;102239.53;5009712;28;4128;-74
2023/05/19 01:24:21;;;;;;;;;;;;;;;20.74;44.01;102240.13;5009475;28;6011;-74
2023/05/19 01:26:54;;;;;;;;;;;;;;;20.75;44.11;102243.75;5006531;28;4136;-74
2023/05/19 01:29:23;;;;;;;;;;;;;;;20.73;44.13;102241.53;4996293;28;4075;-75
2023/05/19 01:31:49;;;;;;;;;;;;;;;20.73;44.25;102247.28;5000713;28;4032;-74
2023/05/19 01:34:16;;;;;;;;;;;;;;;20.72;44.08;102240.00;5014315;28;3900;-74
2023/05/19 01:36:44;;;;;;;;;;;;;;;20.71;44.24;102250.00;4991950;28;4036;-73
2023/05/19 01:39:11;;;;;;;;;;;;;;;20.70;44.27;102245.63;5010953;28;4231;-74
2023/05/19 01:41:38;;;;;;;;;;;;;;;20.68;44.26;102240.50;5010441;28;4063;-74
2023/05/19 01:44:06;;;;;;;;;;;;;;;20.69;44.32;102247.00;5010934;28;5474;-74
2023/05/19 01:46:33;;;;;;;;;;;;;;;20.69;44.13;102244.13;5003759;28;4158;-74
2023/05/19 01:48:59;;;;;;;;;;;;;;;20.69;44.25;102247.00;5008096;28;4155;-74
2023/05/19 01:51:26;;;;;;;;;;;;;;;20.68;44.30;102245.47;5008678;28;4112;-74
2023/05/19 01:53:52;;;;;;;;;;;;;;;20.67;44.33;102244.72;5012027;28;4164;-73
2023/05/19 01:56:20;;;;;;;;;;;;;;;20.67;44.31;102243.97;5006495;28;4566;-74
2023/05/19 01:58:48;;;;;;;;;;;;;;;20.67;44.15;102253.38;5015782;28;4205;-74
2023/05/19 02:01:30;;;;;;;;;;;;;;;20.67;44.18;102249.75;5005968;28;5160;-74
2023/05/19 02:04:17;;;;;;;;;;;;;;;20.66;44.35;102253.97;5005910;28;4111;-74
2023/05/19 02:07:02;;;;;;;;;;;;;;;20.66;44.44;102245.34;5002813;28;4145;-74
2023/05/19 02:09:52;;;;;;;;;;;;;;;20.66;44.17;102253.97;5012716;28;3953;-74
2023/05/19 02:12:23;;;;;;;;;;;;;;;20.65;44.29;102246.72;4995137;28;4041;-74
2023/05/19 02:15:09;;;;;;;;;;;;;;;20.65;44.24;102250.34;4998967;28;4212;-74
2023/05/19 02:17:37;;;;;;;;;;;;;;;20.65;44.37;102246.72;5005412;28;4069;-74
2023/05/19 02:20:03;;;;;;;;;;;;;;;20.64;44.20;102248.09;4988586;28;5274;-73
2023/05/19 02:22:30;;;;;;;;;;;;;;;20.64;44.30;102245.22;4992216;28;4134;-73
2023/05/19 02:24:56;;;;;;;;;;;;;;;20.63;44.41;102249.47;4989222;28;4055;-73
2023/05/19 02:27:23;;;;;;;;;;;;;;;20.63;44.15;102249.47;5000148;28;4199;-73
2023/05/19 02:29:49;;;;;;;;;;;;;;;20.63;44.32;102237.94;5005512;28;4243;-73
2023/05/19 02:32:16;;;;;;;;;;;;;;;20.63;44.24;102232.19;5005212;28;4083;-73
2023/05/19 02:34:44;;;;;;;;;;;;;;;20.63;44.38;102237.94;4999502;28;4229;-73
2023/05/19 02:37:12;;;;;;;;;;;;;;;20.62;44.34;102237.19;5013992;28;4005;-73
2023/05/19 02:39:39;;;;;;;;;;;;;;;20.62;44.28;102242.22;5006211;28;4178;-71
2023/05/19 02:42:05;;;;;;;;;;;;;;;20.62;44.34;102236.44;5002928;28;4124;-73
2023/05/19 02:44:32;;;;;;;;;;;;;;;20.61;44.38;102241.44;5004038;28;4123;-73
2023/05/19 02:46:58;;;;;;;;;;;;;;;20.61;44.27;102235.69;4999225;28;4113;-73
2023/05/19 02:49:24;;;;;;;;;;;;;;;20.61;44.35;102246.44;5000779;28;4288;-73
2023/05/19 02:51:52;;;;;;;;;;;;;;;20.61;44.42;102240.69;5008878;28;4108;-73
2023/05/19 02:54:18;;;;;;;;;;;;;;;20.61;44.40;102238.56;5005796;28;4098;-73
2023/05/19 02:56:45;;;;;;;;;;;;;;;20.61;44.36;102237.81;5003020;28;4235;-73
2023/05/19 02:59:12;;;;;;;;;;;;;;;20.60;44.28;102233.44;5006965;28;4276;-73
2023/05/19 03:01:39;;;;;;;;;;;;;;;20.60;44.42;102239.19;5002701;28;4196;-73
2023/05/19 03:04:06;;;;;;;;;;;;;;;20.58;44.22;102225.41;5005713;28;5351;-73
2023/05/19 03:06:33;;;;;;;;;;;;;;;20.58;44.32;102236.16;5003688;28;4250;-73
2023/05/19 03:08:59;;;;;;;;;;;;;;;20.58;44.40;102236.16;5010453;28;4122;-73
2023/05/19 03:11:25;;;;;;;;;;;;;;;20.58;44.24;102230.41;5005817;28;4174;-73
2023/05/19 03:13:52;;;;;;;;;;;;;;;20.57;44.34;102228.88;4999952;28;4075;-74
2023/05/19 03:16:18;;;;;;;;;;;;;;;20.56;44.36;102227.38;5002329;28;4220;-73
2023/05/19 03:18:45;;;;;;;;;;;;;;;20.55;44.34;102231.59;5002363;28;4077;-73
2023/05/19 03:21:11;;;;;;;;;;;;;;;20.51;44.42;102229.97;5001595;28;4220;-74
2023/05/19 03:23:38;;;;;;;;;;;;;;;20.57;44.34;102226.00;5000735;28;4141;-72
2023/05/19 03:26:05;;;;;;;;;;;;;;;20.58;44.33;102227.53;5022412;28;5690;-73
2023/05/19 03:28:31;;;;;;;;;;;;;;;20.58;44.37;102236.16;5001815;28;3943;-68
2023/05/19 03:30:58;;;;;;;;;;;;;;;20.58;44.38;102230.41;5004277;28;4220;-73
2023/05/19 03:33:28;;;;;;;;;;;;;;;20.56;44.47;102222.38;5011182;28;5011;-73
2023/05/19 03:35:55;;;;;;;;;;;;;;;20.55;44.54;102225.84;5002761;28;4233;-73
2023/05/19 03:38:22;;;;;;;;;;;;;;;20.54;44.55;102224.34;5005380;28;4155;-74
2023/05/19 03:40:54;;;;;;;;;;;;;;;20.53;44.59;102222.84;5011392;28;4986;-73
2023/05/19 03:43:20;;;;;;;;;;;;;;;20.51;44.43;102218.47;5002318;28;4085;-73
2023/05/19 03:45:53;;;;;;;;;;;;;;;20.51;44.74;102215.59;5004365;28;4164;-73
2023/05/19 03:48:40;;;;;;;;;;;;;;;20.51;44.50;102221.34;5005299;28;4199;-73
2023/05/19 03:51:27;;;;;;;;;;;;;;;20.50;44.50;102219.84;5010755;28;4056;-72
2023/05/19 03:53:56;;;;;;;;;;;;;;;20.51;44.66;102221.34;5008393;28;4327;-73
2023/05/19 03:56:25;;;;;;;;;;;;;;;20.51;44.57;102227.09;5016516;28;4029;-73
2023/05/19 03:58:53;;;;;;;;;;;;;;;20.51;44.65;102221.34;5012438;28;4267;-73
2023/05/19 04:01:19;;;;;;;;;;;;;;;20.51;44.76;102223.47;5007939;28;4222;-73
2023/05/19 04:03:46;;;;;;;;;;;;;;;20.51;44.68;102226.34;5011371;28;4214;-73
2023/05/19 04:06:12;;;;;;;;;;;;;;;20.49;44.56;102229.81;5007644;28;4084;-74
2023/05/19 04:08:39;;;;;;;;;;;;;;;20.48;44.69;102222.56;5005331;28;4495;-73
2023/05/19 04:11:05;;;;;;;;;;;;;;;20.48;44.59;102224.72;5012831;28;4652;-73
2023/05/19 04:13:32;;;;;;;;;;;;;;;20.48;44.69;102228.34;5005000;28;4378;-74
2023/05/19 04:15:58;;;;;;;;;;;;;;;20.47;44.68;102226.06;5004612;28;4414;-73
2023/05/19 04:18:25;;;;;;;;;;;;;;;20.46;44.78;102225.31;5005021;28;4242;-73
2023/05/19 04:20:54;;;;;;;;;;;;;;;20.48;44.67;102233.34;5006439;28;4232;-72
2023/05/19 04:23:21;;;;;;;;;;;;;;;20.47;44.65;102226.06;5011378;28;4192;-72
2023/05/19 04:25:48;;;;;;;;;;;;;;;20.47;44.73;102226.81;5007114;28;4124;-72
2023/05/19 04:28:14;;;;;;;;;;;;;;;20.46;44.71;102224.56;5000455;28;4050;-73
2023/05/19 04:30:41;;;;;;;;;;;;;;;20.46;44.84;102231.06;5000734;28;4251;-73
2023/05/19 04:33:10;;;;;;;;;;;;;;;20.43;44.50;102238.06;5002687;28;4135;-73
2023/05/19 04:35:38;;;;;;;;;;;;;;;20.43;44.24;102231.53;5020434;28;4206;-73
2023/05/19 04:38:06;;;;;;;;;;;;;;;20.41;44.07;102235.03;5003727;28;4068;-74
2023/05/19 04:40:33;;;;;;;;;;;;;;;20.54;44.30;102238.75;5006635;28;4539;-69
2023/05/19 04:43:00;;;;;;;;;;;;;;;20.55;44.45;102243.88;5007800;28;4239;-68
2023/05/19 04:45:28;;;;;;;;;;;;;;;20.56;44.50;102241.75;5002606;28;4235;-66
2023/05/19 04:47:57;;;;;;;;;;;;;;;20.32;44.16;102235.88;5007420;28;3988;-69
2023/05/19 04:50:24;;;;;;;;;;;;;;;20.26;44.26;102229.69;5003182;28;4329;-68
2023/05/19 04:52:51;;;;;;;;;;;;;;;20.36;43.89;102239.00;5015308;28;4097;-68
2023/05/19 04:55:17;;;;;;;;;;;;;;;20.41;43.71;102240.81;5013941;28;4096;-68
2023/05/19 04:57:45;;;;;;;;;;;;;;;20.44;44.14;102230.94;5013084;28;4124;-68
2023/05/19 05:00:13;;;;;;;;;;;;;;;20.46;43.95;102242.59;5014523;28;4546;-68
2023/05/19 05:02:50;;;;;;;;;;;;;;;20.47;44.03;102238.31;5025055;28;4142;-68
2023/05/19 05:05:19;;;;;;;;;;;;;;;20.48;44.08;102236.97;5013729;28;4315;-68
2023/05/19 05:07:46;;;;;;;;;;;;;;;20.49;44.09;102229.09;5012681;28;4329;-68
2023/05/19 05:10:13;;;;;;;;;;;;;;;20.49;44.20;102229.81;5006607;28;4374;-68
2023/05/19 05:12:39;;;;;;;;;;;;;;;20.49;44.38;102232.72;5017152;28;4780;-68
2023/05/19 05:15:06;;;;;;;;;;;;;;;20.50;44.37;102237.09;5018309;28;4093;-68
2023/05/19 05:17:36;;;;;;;;;;;;;;;20.52;44.47;102239.34;5012521;28;4127;-68
2023/05/19 05:20:05;;;;;;;;;;;;;;;20.54;44.47;102236.63;5015201;28;4494;-68
2023/05/19 05:22:31;;;;;;;;;;;;;;;20.53;44.71;102248.75;5016077;28;4042;-68
2023/05/19 05:24:58;;;;;;;;;;;;;;;20.53;44.50;102245.88;5029753;28;4455;-68
2023/05/19 05:27:24;;;;;;;;;;;;;;;20.54;44.51;102247.38;5017972;28;4469;-68
2023/05/19 05:29:51;;;;;;;;;;;;;;;20.55;44.60;102246.00;5023900;28;4682;-68
2023/05/19 05:32:19;;;;;;;;;;;;;;;20.54;44.83;102244.50;5010492;28;4008;-68
2023/05/19 05:34:45;;;;;;;;;;;;;;;20.53;44.73;102240.88;5009530;28;4140;-68
2023/05/19 05:37:12;;;;;;;;;;;;;;;20.53;44.79;102240.13;5010050;28;4028;-68
2023/05/19 05:39:40;;;;;;;;;;;;;;;20.54;44.81;102235.88;5013162;28;4547;-68
2023/05/19 05:42:11;;;;;;;;;;;;;;;20.54;44.69;102239.50;5012714;28;4074;-68
2023/05/19 05:44:39;;;;;;;;;;;;;;;20.53;44.86;102240.13;5017596;28;4138;-67
2023/05/19 05:47:05;;;;;;;;;;;;;;;20.54;45.01;102238.75;5023584;28;4139;-68
2023/05/19 05:49:35;;;;;;;;;;;;;;;20.54;44.90;102236.63;5008694;28;4303;-68
2023/05/19 05:52:01;;;;;;;;;;;;;;;20.54;44.87;102242.38;5007453;28;4905;-68
2023/05/19 05:54:37;;;;;;;;;;;;;;;20.54;45.00;102235.88;5007440;28;4238;-68
2023/05/19 05:57:03;;;;;;;;;;;;;;;20.55;44.81;102237.34;5027554;28;4163;-68
2023/05/19 05:59:32;;;;;;;;;;;;;;;20.55;44.90;102231.59;5010822;28;4103;-68
2023/05/19 06:01:59;;;;;;;;;;;;;;;20.55;44.86;102228.72;5014863;28;4221;-68
2023/05/19 06:04:25;;;;;;;;;;;;;;;20.56;45.05;102238.88;5013247;28;4138;-68
2023/05/19 06:06:56;;;;;;;;;;;;;;;20.55;44.97;102238.13;5015622;28;4258;-68
2023/05/19 06:09:24;;;;;;;;;;;;;;;20.56;44.91;102241.75;5009935;28;4205;-68
2023/05/19 06:11:50;;;;;;;;;;;;;;;20.56;44.83;102227.38;5021773;28;4129;-68
2023/05/19 06:14:17;;;;;;;;;;;;;;;20.56;44.79;102233.91;5013138;28;4196;-68
2023/05/19 06:17:07;;;;;;;;;;;;;;;20.57;45.09;102231.78;5002359;28;4122;-68
2023/05/19 06:19:33;;;;;;;;;;;;;;;20.57;44.91;102234.66;5011496;28;4364;-68
2023/05/19 06:21:59;;;;;;;;;;;;;;;20.57;44.86;102240.41;5007596;28;4432;-68
2023/05/19 06:24:27;;;;;;;;;;;;;;;20.58;44.80;102241.94;5042827;28;4040;-68
2023/05/19 06:26:54;;;;;;;;;;;;;;;20.57;44.92;102237.53;5015463;28;4144;-68
2023/05/19 06:29:20;;;;;;;;;;;;;;;20.56;45.20;102238.88;5007895;28;4083;-68
2023/05/19 06:31:48;;;;;;;;;;;;;;;20.57;45.09;102234.66;5017612;28;4112;-68
2023/05/19 06:34:16;;;;;;;;;;;;;;;20.57;45.21;102234.66;5016064;28;4210;-68
2023/05/19 06:36:44;;;;;;;;;;;;;;;20.58;45.02;102241.94;5015031;28;4206;-68
2023/05/19 06:39:11;;;;;;;;;;;;;;;20.57;45.01;102240.41;5015759;28;4087;-68
2023/05/19 06:41:39;;;;;;;;;;;;;;;20.58;44.98;102241.94;5015222;28;4573;-68
2023/05/19 06:44:06;;;;;;;;;;;;;;;20.58;44.90;102241.94;5007650;28;4498;-68
2023/05/19 06:46:33;;;;;;;;;;;;;;;20.58;45.15;102236.16;5013083;28;4919;-68
2023/05/19 06:48:59;;;;;;;;;;;;;;;20.58;44.83;102233.28;5009753;28;4178;-68
2023/05/19 06:51:30;;;;;;;;;;;;;;;20.58;44.97;102231.16;5006623;28;4506;-68
2023/05/19 06:53:58;;;;;;;;;;;;;;;20.59;44.92;102237.66;5004763;28;4098;-68
2023/05/19 06:56:25;;;;;;;;;;;;;;;20.58;44.68;102239.78;5007758;28;4130;-68
2023/05/19 06:58:51;;;;;;;;;;;;;;;20.58;44.83;102242.69;5009223;28;4154;-68
2023/05/19 07:01:22;;;;;;;;;;;;;;;20.60;45.03;102242.06;5008994;28;4128;-68
2023/05/19 07:03:52;;;;;;;;;;;;;;;20.58;44.80;102242.69;5015903;28;4479;-68
2023/05/19 07:06:19;;;;;;;;;;;;;;;20.60;44.79;102244.94;5006838;28;4044;-68
2023/05/19 07:08:46;;;;;;;;;;;;;;;20.59;44.88;102237.66;5014933;28;4098;-68
2023/05/19 07:11:13;;;;;;;;;;;;;;;20.59;44.87;102238.44;5010817;28;4377;-68
2023/05/19 07:13:40;;;;;;;;;;;;;;;20.59;44.77;102234.78;5025746;28;4171;-68
2023/05/19 07:16:07;;;;;;;;;;;;;;;20.59;44.74;102238.44;5005515;28;4536;-68
2023/05/19 07:18:34;;;;;;;;;;;;;;;20.59;44.88;102235.56;5010966;28;4333;-69
2023/05/19 07:21:00;;;;;;;;;;;;;;;20.59;44.73;102237.66;5014072;28;4166;-69
2023/05/19 07:23:27;;;;;;;;;;;;;;;20.60;44.89;102233.44;5014745;28;4951;-68
2023/05/19 07:25:55;;;;;;;;;;;;;;;20.59;44.75;102232.69;5014445;28;4080;-68
2023/05/19 07:28:21;;;;;;;;;;;;;;;20.61;44.68;102235.69;5006034;28;4176;-68
2023/05/19 07:30:48;;;;;;;;;;;;;;;20.61;44.70;102235.69;5008144;28;4146;-68
2023/05/19 07:33:15;;;;;;;;;;;;;;;20.62;44.68;102236.44;5011172;28;4028;-68
2023/05/19 07:35:41;;;;;;;;;;;;;;;20.60;44.71;102233.44;5010847;28;4182;-68
2023/05/19 07:38:08;;;;;;;;;;;;;;;20.61;44.88;102229.91;5014203;28;4133;-68
2023/05/19 07:40:34;;;;;;;;;;;;;;;20.61;44.84;102229.16;5005173;28;4129;-68
2023/05/19 07:43:00;;;;;;;;;;;;;;;20.61;44.75;102229.16;5009988;28;4431;-68
2023/05/19 07:45:27;;;;;;;;;;;;;;;20.62;44.94;102224.94;5008843;28;4342;-68
2023/05/19 07:47:53;;;;;;;;;;;;;;;20.63;44.92;102217.78;5008647;28;4023;-68
2023/05/19 07:50:20;;;;;;;;;;;;;;;20.63;44.97;102226.44;5007494;28;4249;-68
2023/05/19 07:52:46;;;;;;;;;;;;;;;20.63;44.88;102226.44;5011934;28;4158;-68
2023/05/19 07:55:13;;;;;;;;;;;;;;;20.64;44.95;102219.31;5013007;28;4136;-68
2023/05/19 07:57:40;;;;;;;;;;;;;;;20.63;44.90;102212.78;5008764;28;4092;-68
2023/05/19 08:00:08;;;;;;;;;;;;;;;20.64;44.77;102210.69;5008538;28;4151;-68
2023/05/19 08:02:36;;;;;;;;;;;;;;;20.63;44.66;102209.16;5007912;28;4167;-68
2023/05/19 08:05:03;;;;;;;;;;;;;;;20.64;44.77;102213.56;5011959;28;4346;-68
2023/05/19 08:07:29;;;;;;;;;;;;;;;20.64;44.77;102205.69;5015636;28;4170;-68
2023/05/19 08:09:56;;;;;;;;;;;;;;;20.65;44.75;102212.19;5007522;28;4325;-68
2023/05/19 08:12:23;;;;;;;;;;;;;;;20.65;44.80;102217.94;5007451;28;4112;-68
2023/05/19 08:14:50;;;;;;;;;;;;;;;20.66;44.81;102219.44;5008271;28;4074;-68
2023/05/19 08:17:16;;;;;;;;;;;;;;;20.67;44.97;102220.94;5010766;28;4083;-68
2023/05/19 08:19:42;;;;;;;;;;;;;;;20.66;44.78;102219.44;5010829;28;4103;-68
2023/05/19 08:22:09;;;;;;;;;;;;;;;20.66;44.81;102220.22;5011382;28;4147;-68
2023/05/19 08:24:35;;;;;;;;;;;;;;;20.66;45.01;102228.84;5007595;28;4109;-68
2023/05/19 08:27:03;;;;;;;;;;;;;;;20.67;44.97;102226.72;5008370;28;4116;-68
2023/05/19 08:29:30;;;;;;;;;;;;;;;20.67;45.00;102226.72;5007910;28;4471;-68
2023/05/19 08:31:57;;;;;;;;;;;;;;;20.69;45.07;102223.97;5008935;28;4220;-68
2023/05/19 08:34:23;;;;;;;;;;;;;;;20.68;44.96;102217.47;5007891;28;4435;-68
2023/05/19 08:36:50;;;;;;;;;;;;;;;20.71;45.10;102229.88;5006725;28;4127;-68
2023/05/19 08:39:18;;;;;;;;;;;;;;;20.69;45.15;102223.97;5015467;28;4095;-68
2023/05/19 08:41:44;;;;;;;;;;;;;;;20.70;45.17;102213.94;5014558;28;4433;-68
2023/05/19 08:44:11;;;;;;;;;;;;;;;20.69;45.07;102215.34;5010216;28;4520;-68
2023/05/19 08:46:37;;;;;;;;;;;;;;;20.64;45.01;102219.31;5013475;28;4088;-69
2023/05/19 08:49:04;;;;;;;;;;;;;;;20.59;45.27;102217.53;5008565;28;4464;-68
2023/05/19 08:51:49;;;;;;;;;;;;;;;20.61;45.40;102223.41;5006837;28;4019;-68
2023/05/19 08:54:16;;;;;;;;;;;;;;;20.60;45.31;102227.69;5025777;28;4082;-68
2023/05/19 08:56:43;;;;;;;;;;;;;;;20.59;45.45;102214.63;5008507;28;4435;-68
2023/05/19 08:59:10;;;;;;;;;;;;;;;20.60;45.27;102204.66;5011786;28;4453;-68
2023/05/19 09:01:37;;;;;;;;;;;;;;;20.60;45.20;102207.53;5010998;28;4062;-68
2023/05/19 09:04:03;;;;;;;;;;;;;;;20.59;45.47;102201.03;5018550;28;4067;-68
2023/05/19 09:06:33;;;;;;;;;;;;;;;20.60;45.38;102198.91;5010104;28;4518;-68
2023/05/19 09:09:00;;;;;;;;;;;;;;;20.60;45.38;102196.75;5008414;28;4055;-68
2023/05/19 09:11:26;;;;;;;;;;;;;;;20.61;45.25;102200.38;5010046;28;4087;-68
2023/05/19 09:13:53;;;;;;;;;;;;;;;20.61;45.33;102192.50;5010178;28;4063;-68
2023/05/19 09:16:19;;;;;;;;;;;;;;;20.62;45.41;102191.16;5011306;28;4242;-69
2023/05/19 09:18:59;;;;;;;;;;;;;;;20.62;45.23;102190.41;4998162;28;4172;-68
2023/05/19 09:21:27;;;;;;;;;;;;;;;20.63;45.45;102183.25;5007091;28;5248;-69
2023/05/19 09:23:54;;;;;;;;;;;;;;;20.62;45.39;102184.66;5006700;28;3892;-68
2023/05/19 09:26:22;;;;;;;;;;;;;;;20.62;45.48;102178.88;5010139;28;4103;-68
2023/05/19 09:28:48;;;;;;;;;;;;;;;20.66;45.29;102176.25;5010830;28;4133;-68
2023/05/19 09:31:15;;;;;;;;;;;;;;;20.73;45.15;102177.41;5009559;28;4209;-75
2023/05/19 09:33:41;;;;;;;;;;;;;;;20.67;45.13;102163.38;5012559;28;4106;-68
2023/05/19 09:36:11;;;;;;;;;;;;;;;20.65;45.33;102166.13;5008625;28;4128;-68
2023/05/19 09:38:37;;;;;;;;;;;;;;;20.67;45.43;102172.75;5009758;28;3996;-69
2023/05/19 09:41:04;;;;;;;;;;;;;;;20.73;45.40;102169.56;5004875;28;4538;-68
2023/05/19 09:43:34;;;;;;;;;;;;;;;20.76;45.38;102170.44;5009760;28;4583;-68
2023/05/19 09:46:04;;;;;;;;;;;;;;;20.75;45.37;102169.66;5012908;28;4129;-68
2023/05/19 09:48:31;;;;;;;;;;;;;;;20.77;45.34;102155.41;5007415;28;4371;-68
2023/05/19 09:50:59;;;;;;;;;;;;;;;20.77;45.40;102166.91;5009185;28;4463;-68
2023/05/19 09:53:25;;;;;;;;;;;;;;;20.77;45.20;102164.03;5011502;28;4017;-68
2023/05/19 09:55:56;;;;;;;;;;;;;;;20.78;45.21;102162.69;5009076;28;4442;-68
2023/05/19 09:58:23;;;;;;;;;;;;;;;20.77;45.31;102155.41;5013041;28;4146;-68
2023/05/19 10:00:49;;;;;;;;;;;;;;;20.78;45.13;102159.81;5006034;28;4050;-68
2023/05/19 10:03:16;;;;;;;;;;;;;;;20.79;45.10;102154.78;5008159;28;4448;-69
2023/05/19 10:05:43;;;;;;;;;;;;;;;20.78;45.22;102136.78;5011525;28;4238;-68
2023/05/19 10:08:10;;;;;;;;;;;;;;;20.79;45.23;102141.13;5015564;28;4165;-68
2023/05/19 10:10:37;;;;;;;;;;;;;;;20.80;45.45;102142.66;5013137;28;4139;-69
2023/05/19 10:13:04;;;;;;;;;;;;;;;20.80;45.31;102139.00;5013004;28;4446;-69
2023/05/19 10:15:30;;;;;;;;;;;;;;;20.80;45.31;102142.66;5015667;28;4224;-69
2023/05/19 10:18:01;;;;;;;;;;;;;;;20.80;45.27;102136.91;5009712;28;4214;-69
2023/05/19 10:20:27;;;;;;;;;;;;;;;20.81;45.42;102140.53;5017533;28;4119;-69
2023/05/19 10:22:54;;;;;;;;;;;;;;;20.81;45.37;102137.66;5015615;28;4191;-69
2023/05/19 10:25:20;;;;;;;;;;;;;;;20.81;45.49;102137.66;5007989;28;4046;-68
2023/05/19 10:27:54;;;;;;;;;;;;;;;20.80;45.49;102136.91;5007314;28;4516;-68
2023/05/19 10:30:26;;;;;;;;;;;;;;;20.82;45.32;102139.16;5010159;28;4112;-68
2023/05/19 10:32:53;;;;;;;;;;;;;;;20.81;45.30;102134.78;5010430;28;4219;-67
2023/05/19 10:35:35;;;;;;;;;;;;;;;20.81;45.40;102137.66;5009042;28;4136;-68
2023/05/19 10:38:05;;;;;;;;;;;;;;;20.82;45.37;102142.78;5009569;28;4278;-68
2023/05/19 10:40:52;;;;;;;;;;;;;;;20.80;45.43;102142.66;5009579;28;3945;-68
2023/05/19 10:43:28;;;;;;;;;;;;;;;20.83;45.36;102137.78;5009792;28;4606;-68
2023/05/19 10:45:54;;;;;;;;;;;;;;;20.82;45.66;102134.16;5008669;28;4612;-68
2023/05/19 10:48:23;;;;;;;;;;;;;;;20.80;45.49;102125.38;5015133;28;4059;-68
2023/05/19 10:50:53;;;;;;;;;;;;;;;20.79;45.67;102126.75;5008157;28;4312;-68
2023/05/19 10:53:21;;;;;;;;;;;;;;;20.83;45.53;102129.91;5008261;28;4164;-68
2023/05/19 10:55:51;;;;;;;;;;;;;;;20.84;45.47;102136.41;5009102;28;4200;-68
2023/05/19 10:58:40;;;;;;;;;;;;;;;20.84;45.61;102125.63;5007521;28;4340;-68
2023/05/19 11:01:09;;;;;;;;;;;;;;;20.85;45.46;102121.38;5019656;28;4602;-68
2023/05/19 11:03:52;;;;;;;;;;;;;;;20.83;45.79;102129.91;5009319;28;4124;-68
2023/05/19 11:06:28;;;;;;;;;;;;;;;20.87;45.68;102126.53;5007464;28;4132;-69
2023/05/19 11:09:03;;;;;;;;;;;;;;;20.87;45.74;102115.78;5005740;28;4288;-68
2023/05/19 11:11:49;;;;;;;;;;;;;;;20.87;45.76;102123.66;5000689;28;4034;-68
2023/05/19 11:14:22;;;;;;;;;;;;;;;20.89;45.78;102121.66;5005290;28;3923;-69
2023/05/19 11:16:49;;;;;;;;;;;;;;;20.90;45.97;102113.78;5009283;28;4097;-69
2023/05/19 11:19:18;;;;;;;;;;;;;;;20.88;46.22;102110.75;5009466;28;4192;-69
2023/05/19 11:21:53;;;;;;;;;;;;;;;20.90;46.14;102100.13;5010542;28;4368;-68
2023/05/19 11:24:39;;;;;;;;;;;;;;;20.89;46.44;102098.63;5004753;28;4164;-68
2023/05/19 11:27:24;;;;;;;;;;;;;;;20.91;46.48;102097.97;5007607;28;4145;-70
2023/05/19 11:29:50;;;;;;;;;;;;;;;20.89;46.58;102107.25;5010272;28;4169;-68
2023/05/19 11:32:17;;;;;;;;;;;;;;;20.91;46.74;102101.63;5010448;28;4040;-68
2023/05/19 11:34:43;;;;;;;;;;;;;;;20.95;46.87;102109.03;5008757;28;4174;-69
2023/05/19 11:37:10;;;;;;;;;;;;;;;20.93;47.04;102101.00;5008417;28;3993;-69
2023/05/19 11:39:36;;;;;;;;;;;;;;;20.95;46.99;102101.13;5009156;28;4350;-68
2023/05/19 11:42:03;;;;;;;;;;;;;;;20.98;47.08;102099.13;5009709;28;4085;-68
2023/05/19 11:44:30;;;;;;;;;;;;;;;20.99;47.19;102100.66;5009009;28;4093;-68
2023/05/19 11:46:59;;;;;;;;;;;;;;;21.00;47.16;102093.50;5008157;28;4286;-68
2023/05/19 11:49:27;;;;;;;;;;;;;;;20.98;47.01;102090.50;5013910;28;4194;-68
2023/05/19 11:51:53;;;;;;;;;;;;;;;20.99;46.83;102094.88;5012774;28;4100;-68
2023/05/19 11:54:20;;;;;;;;;;;;;;;20.99;47.00;102095.63;5006798;28;4087;-69
2023/05/19 11:56:46;;;;;;;;;;;;;;;21.00;46.78;102096.38;5010994;28;4129;-69
2023/05/19 11:59:12;;;;;;;;;;;;;;;21.01;46.90;102104.41;5009063;28;4554;-68
2023/05/19 12:01:39;;;;;;;;;;;;;;;21.02;46.67;102099.38;5006656;28;4067;-67
2023/05/19 12:04:09;;;;;;;;;;;;;;;21.02;46.88;102105.16;5009701;28;5071;-69
2023/05/19 12:06:38;;;;;;;;;;;;;;;21.05;46.83;102098.13;5007489;28;4234;-69
2023/05/19 12:09:05;;;;;;;;;;;;;;;21.05;46.64;102101.00;5009201;28;4051;-69
2023/05/19 12:11:31;;;;;;;;;;;;;;;21.06;46.87;102099.66;5009050;28;4228;-69
2023/05/19 12:13:57;;;;;;;;;;;;;;;21.06;46.76;102093.88;5011327;28;4128;-69
2023/05/19 12:16:31;;;;;;;;;;;;;;;21.04;46.66;102085.88;5014199;28;3997;-70
2023/05/19 12:18:58;;;;;;;;;;;;;;;21.06;46.61;102082.38;5013854;28;4105;-69
2023/05/19 12:21:25;;;;;;;;;;;;;;;21.06;46.54;102085.25;5006972;28;4935;-69
2023/05/19 12:23:59;;;;;;;;;;;;;;;21.06;46.63;102096.78;5008681;28;4103;-69
2023/05/19 12:26:26;;;;;;;;;;;;;;;21.07;46.69;102083.88;5013638;28;4173;-69
2023/05/19 12:28:52;;;;;;;;;;;;;;;21.07;46.75;102087.50;5009147;28;4138;-69
2023/05/19 12:31:19;;;;;;;;;;;;;;;21.09;46.65;102090.50;5010374;28;4165;-69
2023/05/19 12:33:47;;;;;;;;;;;;;;;21.09;46.80;102084.75;5011549;28;4126;-69
2023/05/19 12:36:13;;;;;;;;;;;;;;;21.08;46.89;102086.13;5012652;28;4520;-70
2023/05/19 12:38:41;;;;;;;;;;;;;;;21.09;46.79;102078.22;5008422;28;4034;-69
2023/05/19 12:41:09;;;;;;;;;;;;;;;21.09;47.03;102075.34;5012915;28;4180;-69
2023/05/19 12:43:36;;;;;;;;;;;;;;;21.11;46.87;102070.47;5009049;28;4547;-69
2023/05/19 12:46:11;;;;;;;;;;;;;;;21.09;47.02;102067.47;5012024;28;4308;-70
2023/05/19 12:48:44;;;;;;;;;;;;;;;21.11;47.25;102063.97;5010218;28;4005;-69
2023/05/19 12:51:17;;;;;;;;;;;;;;;21.11;47.41;102066.84;5011226;28;4187;-70
2023/05/19 12:53:44;;;;;;;;;;;;;;;21.13;47.34;102058.31;5014816;28;4502;-69